sensor_id;sensor_type;location;lat;lon;timestamp;P1;durP1;ratioP1;P2;durP2;ratioP2
61291;SDS011;47165;42.664;23.368;2023-12-20T00:00:01;5.93;;;2.75;;
61291;SDS011;47165;42.664;23.368;2023-12-20T00:02:27;7.50;;;3.95;;
61291;SDS011;47165;42.664;23.368;2023-12-20T00:04:53;8.55;;;3.67;;
61291;SDS011;47165;42.664;23.368;2023-12-20T00:07:18;10.07;;;4.55;;
61291;SDS011;47165;42.664;23.368;2023-12-20T00:09:44;6.60;;;3.10;;
61291;SDS011;47165;42.664;23.368;2023-12-20T00:12:09;9.93;;;4.03;;
61291;SDS011;47165;42.664;23.368;2023-12-20T00:14:35;8.60;;;3.85;;
61291;SDS011;47165;42.664;23.368;2023-12-20T00:17:01;6.18;;;3.47;;
61291;SDS011;47165;42.664;23.368;2023-12-20T00:19:26;9.48;;;4.60;;
61291;SDS011;47165;42.664;23.368;2023-12-20T00:21:52;8.05;;;3.83;;
61291;SDS011;47165;42.664;23.368;2023-12-20T00:24:17;5.88;;;3.40;;
61291;SDS011;47165;42.664;23.368;2023-12-20T00:26:43;7.30;;;3.95;;
61291;SDS011;47165;42.664;23.368;2023-12-20T00:29:08;4.78;;;3.33;;
61291;SDS011;47165;42.664;23.368;2023-12-20T00:31:33;5.55;;;3.53;;
61291;SDS011;47165;42.664;23.368;2023-12-20T00:33:59;10.88;;;4.50;;
61291;SDS011;47165;42.664;23.368;2023-12-20T00:36:24;8.63;;;4.35;;
61291;SDS011;47165;42.664;23.368;2023-12-20T00:38:49;7.43;;;4.13;;
61291;SDS011;47165;42.664;23.368;2023-12-20T00:41:16;4.25;;;3.08;;
61291;SDS011;47165;42.664;23.368;2023-12-20T00:43:41;8.50;;;4.05;;
61291;SDS011;47165;42.664;23.368;2023-12-20T00:46:07;10.23;;;3.47;;
61291;SDS011;47165;42.664;23.368;2023-12-20T00:48:32;7.43;;;3.65;;
61291;SDS011;47165;42.664;23.368;2023-12-20T00:50:58;9.10;;;4.57;;
61291;SDS011;47165;42.664;23.368;2023-12-20T00:53:23;9.55;;;3.38;;
61291;SDS011;47165;42.664;23.368;2023-12-20T00:55:49;5.28;;;3.35;;
61291;SDS011;47165;42.664;23.368;2023-12-20T00:58:15;14.10;;;4.07;;
61291;SDS011;47165;42.664;23.368;2023-12-20T01:00:40;4.25;;;2.53;;
61291;SDS011;47165;42.664;23.368;2023-12-20T01:03:08;7.72;;;3.45;;
61291;SDS011;47165;42.664;23.368;2023-12-20T01:05:33;6.47;;;3.22;;
61291;SDS011;47165;42.664;23.368;2023-12-20T01:07:59;9.43;;;4.75;;
61291;SDS011;47165;42.664;23.368;2023-12-20T01:10:24;6.93;;;3.67;;
61291;SDS011;47165;42.664;23.368;2023-12-20T01:12:53;3.53;;;2.80;;
61291;SDS011;47165;42.664;23.368;2023-12-20T01:15:18;8.45;;;4.00;;
61291;SDS011;47165;42.664;23.368;2023-12-20T01:17:44;7.43;;;4.03;;
61291;SDS011;47165;42.664;23.368;2023-12-20T01:20:09;7.30;;;4.00;;
61291;SDS011;47165;42.664;23.368;2023-12-20T01:22:35;7.95;;;3.90;;
61291;SDS011;47165;42.664;23.368;2023-12-20T01:25:01;5.65;;;4.50;;
61291;SDS011;47165;42.664;23.368;2023-12-20T01:27:27;9.35;;;3.28;;
61291;SDS011;47165;42.664;23.368;2023-12-20T01:29:53;5.97;;;3.05;;
61291;SDS011;47165;42.664;23.368;2023-12-20T01:32:19;7.00;;;4.38;;
61291;SDS011;47165;42.664;23.368;2023-12-20T01:34:44;5.13;;;3.20;;
61291;SDS011;47165;42.664;23.368;2023-12-20T01:37:10;5.80;;;3.08;;
61291;SDS011;47165;42.664;23.368;2023-12-20T01:39:35;5.80;;;2.78;;
61291;SDS011;47165;42.664;23.368;2023-12-20T01:42:01;5.95;;;3.88;;
61291;SDS011;47165;42.664;23.368;2023-12-20T01:44:27;5.78;;;2.33;;
61291;SDS011;47165;42.664;23.368;2023-12-20T01:46:52;5.97;;;3.63;;
61291;SDS011;47165;42.664;23.368;2023-12-20T01:49:18;8.18;;;3.88;;
61291;SDS011;47165;42.664;23.368;2023-12-20T01:51:44;4.13;;;2.30;;
61291;SDS011;47165;42.664;23.368;2023-12-20T01:54:10;3.75;;;2.60;;
61291;SDS011;47165;42.664;23.368;2023-12-20T01:56:35;3.97;;;2.70;;
61291;SDS011;47165;42.664;23.368;2023-12-20T01:59:01;7.80;;;3.28;;
61291;SDS011;47165;42.664;23.368;2023-12-20T02:01:27;3.95;;;2.40;;
61291;SDS011;47165;42.664;23.368;2023-12-20T02:03:53;2.30;;;2.10;;
61291;SDS011;47165;42.664;23.368;2023-12-20T02:06:20;4.13;;;2.47;;
61291;SDS011;47165;42.664;23.368;2023-12-20T02:08:48;6.97;;;3.78;;
61291;SDS011;47165;42.664;23.368;2023-12-20T02:11:15;5.10;;;2.75;;
61291;SDS011;47165;42.664;23.368;2023-12-20T02:13:41;5.68;;;3.13;;
61291;SDS011;47165;42.664;23.368;2023-12-20T02:16:06;7.43;;;3.17;;
61291;SDS011;47165;42.664;23.368;2023-12-20T02:18:32;6.57;;;3.38;;
61291;SDS011;47165;42.664;23.368;2023-12-20T02:20:58;10.75;;;5.20;;
61291;SDS011;47165;42.664;23.368;2023-12-20T02:23:23;21.88;;;6.10;;
61291;SDS011;47165;42.664;23.368;2023-12-20T02:25:49;8.52;;;4.85;;
61291;SDS011;47165;42.664;23.368;2023-12-20T02:28:14;9.38;;;6.40;;
61291;SDS011;47165;42.664;23.368;2023-12-20T02:30:41;13.15;;;6.35;;
61291;SDS011;47165;42.664;23.368;2023-12-20T02:33:10;12.70;;;7.47;;
61291;SDS011;47165;42.664;23.368;2023-12-20T02:35:38;14.15;;;8.80;;
61291;SDS011;47165;42.664;23.368;2023-12-20T02:38:03;18.55;;;10.02;;
61291;SDS011;47165;42.664;23.368;2023-12-20T02:40:29;15.70;;;8.20;;
61291;SDS011;47165;42.664;23.368;2023-12-20T02:42:54;32.72;;;14.38;;
61291;SDS011;47165;42.664;23.368;2023-12-20T02:45:20;30.38;;;13.57;;
61291;SDS011;47165;42.664;23.368;2023-12-20T02:47:45;20.40;;;11.27;;
61291;SDS011;47165;42.664;23.368;2023-12-20T02:50:10;23.85;;;13.13;;
61291;SDS011;47165;42.664;23.368;2023-12-20T02:52:36;30.10;;;14.07;;
61291;SDS011;47165;42.664;23.368;2023-12-20T02:55:01;29.38;;;11.20;;
61291;SDS011;47165;42.664;23.368;2023-12-20T02:57:27;28.00;;;12.18;;
61291;SDS011;47165;42.664;23.368;2023-12-20T02:59:52;27.17;;;16.10;;
61291;SDS011;47165;42.664;23.368;2023-12-20T03:02:18;31.13;;;12.02;;
61291;SDS011;47165;42.664;23.368;2023-12-20T03:04:44;30.02;;;14.40;;
61291;SDS011;47165;42.664;23.368;2023-12-20T03:07:09;23.73;;;12.98;;
61291;SDS011;47165;42.664;23.368;2023-12-20T03:09:34;27.23;;;12.30;;
61291;SDS011;47165;42.664;23.368;2023-12-20T03:12:00;31.55;;;12.63;;
61291;SDS011;47165;42.664;23.368;2023-12-20T03:14:25;25.35;;;12.10;;
61291;SDS011;47165;42.664;23.368;2023-12-20T03:16:51;20.35;;;11.27;;
61291;SDS011;47165;42.664;23.368;2023-12-20T03:19:17;20.95;;;13.07;;
61291;SDS011;47165;42.664;23.368;2023-12-20T03:21:44;22.85;;;11.82;;
61291;SDS011;47165;42.664;23.368;2023-12-20T03:24:10;20.85;;;12.30;;
61291;SDS011;47165;42.664;23.368;2023-12-20T03:26:35;25.23;;;11.13;;
61291;SDS011;47165;42.664;23.368;2023-12-20T03:29:01;19.45;;;11.57;;
61291;SDS011;47165;42.664;23.368;2023-12-20T03:31:26;19.58;;;10.10;;
61291;SDS011;47165;42.664;23.368;2023-12-20T03:33:52;17.60;;;10.23;;
61291;SDS011;47165;42.664;23.368;2023-12-20T03:36:18;22.67;;;10.32;;
61291;SDS011;47165;42.664;23.368;2023-12-20T03:38:44;27.67;;;12.85;;
61291;SDS011;47165;42.664;23.368;2023-12-20T03:41:10;20.77;;;9.75;;
61291;SDS011;47165;42.664;23.368;2023-12-20T03:43:36;22.60;;;11.02;;
61291;SDS011;47165;42.664;23.368;2023-12-20T03:46:02;23.70;;;11.80;;
61291;SDS011;47165;42.664;23.368;2023-12-20T03:48:28;25.13;;;9.88;;
61291;SDS011;47165;42.664;23.368;2023-12-20T03:50:54;20.90;;;9.75;;
61291;SDS011;47165;42.664;23.368;2023-12-20T03:53:20;23.45;;;11.73;;
61291;SDS011;47165;42.664;23.368;2023-12-20T03:55:45;20.30;;;11.13;;
61291;SDS011;47165;42.664;23.368;2023-12-20T03:58:10;14.05;;;9.75;;
61291;SDS011;47165;42.664;23.368;2023-12-20T04:00:36;33.30;;;11.38;;
61291;SDS011;47165;42.664;23.368;2023-12-20T04:03:02;21.90;;;10.15;;
61291;SDS011;47165;42.664;23.368;2023-12-20T04:05:27;21.10;;;8.93;;
61291;SDS011;47165;42.664;23.368;2023-12-20T04:07:53;18.38;;;10.88;;
61291;SDS011;47165;42.664;23.368;2023-12-20T04:10:18;17.00;;;8.50;;
61291;SDS011;47165;42.664;23.368;2023-12-20T04:12:43;16.30;;;9.95;;
61291;SDS011;47165;42.664;23.368;2023-12-20T04:15:09;22.23;;;9.77;;
61291;SDS011;47165;42.664;23.368;2023-12-20T04:17:36;17.35;;;8.93;;
61291;SDS011;47165;42.664;23.368;2023-12-20T04:20:01;17.00;;;9.73;;
61291;SDS011;47165;42.664;23.368;2023-12-20T04:22:27;21.75;;;8.52;;
61291;SDS011;47165;42.664;23.368;2023-12-20T04:24:53;11.90;;;7.35;;
61291;SDS011;47165;42.664;23.368;2023-12-20T04:27:18;21.35;;;9.45;;
61291;SDS011;47165;42.664;23.368;2023-12-20T04:29:43;17.58;;;10.15;;
61291;SDS011;47165;42.664;23.368;2023-12-20T04:32:09;18.10;;;7.63;;
61291;SDS011;47165;42.664;23.368;2023-12-20T04:34:34;12.65;;;7.05;;
61291;SDS011;47165;42.664;23.368;2023-12-20T04:37:00;19.75;;;9.05;;
61291;SDS011;47165;42.664;23.368;2023-12-20T04:39:26;19.35;;;7.35;;
61291;SDS011;47165;42.664;23.368;2023-12-20T04:41:52;12.95;;;7.03;;
61291;SDS011;47165;42.664;23.368;2023-12-20T04:44:17;15.38;;;9.35;;
61291;SDS011;47165;42.664;23.368;2023-12-20T04:46:43;22.52;;;11.95;;
61291;SDS011;47165;42.664;23.368;2023-12-20T04:49:08;15.65;;;9.00;;
61291;SDS011;47165;42.664;23.368;2023-12-20T04:51:34;19.95;;;7.60;;
61291;SDS011;47165;42.664;23.368;2023-12-20T04:54:00;13.85;;;8.15;;
61291;SDS011;47165;42.664;23.368;2023-12-20T04:56:25;21.52;;;10.43;;
61291;SDS011;47165;42.664;23.368;2023-12-20T04:58:51;10.73;;;7.32;;
61291;SDS011;47165;42.664;23.368;2023-12-20T05:01:16;11.60;;;7.78;;
61291;SDS011;47165;42.664;23.368;2023-12-20T05:03:42;21.20;;;10.38;;
61291;SDS011;47165;42.664;23.368;2023-12-20T05:06:07;19.58;;;9.15;;
61291;SDS011;47165;42.664;23.368;2023-12-20T05:08:33;27.65;;;11.80;;
61291;SDS011;47165;42.664;23.368;2023-12-20T05:10:58;20.92;;;10.70;;
61291;SDS011;47165;42.664;23.368;2023-12-20T05:13:24;24.88;;;10.45;;
61291;SDS011;47165;42.664;23.368;2023-12-20T05:15:49;14.73;;;8.52;;
61291;SDS011;47165;42.664;23.368;2023-12-20T05:18:15;24.38;;;14.20;;
61291;SDS011;47165;42.664;23.368;2023-12-20T05:20:42;14.13;;;7.68;;
61291;SDS011;47165;42.664;23.368;2023-12-20T05:23:07;22.85;;;7.95;;
61291;SDS011;47165;42.664;23.368;2023-12-20T05:25:33;14.73;;;7.47;;
61291;SDS011;47165;42.664;23.368;2023-12-20T05:27:58;18.02;;;8.50;;
61291;SDS011;47165;42.664;23.368;2023-12-20T05:30:24;16.50;;;8.30;;
61291;SDS011;47165;42.664;23.368;2023-12-20T05:32:49;15.57;;;7.10;;
61291;SDS011;47165;42.664;23.368;2023-12-20T05:35:15;13.95;;;8.20;;
61291;SDS011;47165;42.664;23.368;2023-12-20T05:37:41;10.18;;;4.53;;
61291;SDS011;47165;42.664;23.368;2023-12-20T05:40:07;15.85;;;7.40;;
61291;SDS011;47165;42.664;23.368;2023-12-20T05:42:35;15.52;;;6.40;;
61291;SDS011;47165;42.664;23.368;2023-12-20T05:45:01;14.70;;;7.30;;
61291;SDS011;47165;42.664;23.368;2023-12-20T05:47:26;17.88;;;7.03;;
61291;SDS011;47165;42.664;23.368;2023-12-20T05:49:52;11.57;;;5.72;;
61291;SDS011;47165;42.664;23.368;2023-12-20T05:52:18;7.07;;;4.88;;
61291;SDS011;47165;42.664;23.368;2023-12-20T05:54:43;14.63;;;6.47;;
61291;SDS011;47165;42.664;23.368;2023-12-20T05:57:09;16.67;;;7.30;;
61291;SDS011;47165;42.664;23.368;2023-12-20T05:59:34;14.15;;;6.15;;
61291;SDS011;47165;42.664;23.368;2023-12-20T06:01:59;12.95;;;6.95;;
61291;SDS011;47165;42.664;23.368;2023-12-20T06:04:26;10.57;;;5.65;;
61291;SDS011;47165;42.664;23.368;2023-12-20T06:06:51;11.57;;;5.53;;
61291;SDS011;47165;42.664;23.368;2023-12-20T06:09:17;10.35;;;4.88;;
61291;SDS011;47165;42.664;23.368;2023-12-20T06:11:42;17.60;;;7.55;;
61291;SDS011;47165;42.664;23.368;2023-12-20T06:14:08;9.35;;;4.93;;
61291;SDS011;47165;42.664;23.368;2023-12-20T06:16:33;9.77;;;5.78;;
61291;SDS011;47165;42.664;23.368;2023-12-20T06:18:58;11.00;;;4.65;;
61291;SDS011;47165;42.664;23.368;2023-12-20T06:21:24;6.25;;;4.55;;
61291;SDS011;47165;42.664;23.368;2023-12-20T06:23:50;10.20;;;5.60;;
61291;SDS011;47165;42.664;23.368;2023-12-20T06:26:15;9.55;;;4.75;;
61291;SDS011;47165;42.664;23.368;2023-12-20T06:28:40;11.70;;;5.05;;
61291;SDS011;47165;42.664;23.368;2023-12-20T06:31:06;13.40;;;4.75;;
61291;SDS011;47165;42.664;23.368;2023-12-20T06:33:31;17.83;;;4.90;;
61291;SDS011;47165;42.664;23.368;2023-12-20T06:35:57;11.57;;;5.00;;
61291;SDS011;47165;42.664;23.368;2023-12-20T06:38:22;12.40;;;4.63;;
61291;SDS011;47165;42.664;23.368;2023-12-20T06:40:48;8.00;;;4.93;;
61291;SDS011;47165;42.664;23.368;2023-12-20T06:43:13;16.27;;;6.50;;
61291;SDS011;47165;42.664;23.368;2023-12-20T06:45:39;14.55;;;6.03;;
61291;SDS011;47165;42.664;23.368;2023-12-20T06:48:05;18.67;;;6.28;;
61291;SDS011;47165;42.664;23.368;2023-12-20T06:50:30;12.55;;;4.95;;
61291;SDS011;47165;42.664;23.368;2023-12-20T06:52:56;10.45;;;5.07;;
61291;SDS011;47165;42.664;23.368;2023-12-20T06:55:21;5.25;;;4.28;;
61291;SDS011;47165;42.664;23.368;2023-12-20T06:57:48;9.52;;;4.95;;
61291;SDS011;47165;42.664;23.368;2023-12-20T07:00:13;13.65;;;5.50;;
61291;SDS011;47165;42.664;23.368;2023-12-20T07:02:39;8.60;;;4.85;;
61291;SDS011;47165;42.664;23.368;2023-12-20T07:05:05;13.35;;;5.05;;
61291;SDS011;47165;42.664;23.368;2023-12-20T07:07:31;8.75;;;3.75;;
61291;SDS011;47165;42.664;23.368;2023-12-20T07:09:57;11.00;;;4.25;;
61291;SDS011;47165;42.664;23.368;2023-12-20T07:12:22;5.93;;;3.72;;
61291;SDS011;47165;42.664;23.368;2023-12-20T07:14:47;6.88;;;4.15;;
61291;SDS011;47165;42.664;23.368;2023-12-20T07:17:13;8.02;;;4.15;;
61291;SDS011;47165;42.664;23.368;2023-12-20T07:19:40;8.48;;;4.85;;
61291;SDS011;47165;42.664;23.368;2023-12-20T07:22:06;6.72;;;4.18;;
61291;SDS011;47165;42.664;23.368;2023-12-20T07:24:32;8.20;;;3.65;;
61291;SDS011;47165;42.664;23.368;2023-12-20T07:26:59;7.40;;;3.75;;
61291;SDS011;47165;42.664;23.368;2023-12-20T07:29:27;7.10;;;4.35;;
61291;SDS011;47165;42.664;23.368;2023-12-20T07:31:53;12.55;;;4.50;;
61291;SDS011;47165;42.664;23.368;2023-12-20T07:34:19;7.72;;;3.90;;
61291;SDS011;47165;42.664;23.368;2023-12-20T07:36:45;12.07;;;5.07;;
61291;SDS011;47165;42.664;23.368;2023-12-20T07:39:11;10.23;;;4.20;;
61291;SDS011;47165;42.664;23.368;2023-12-20T07:41:36;7.95;;;4.38;;
61291;SDS011;47165;42.664;23.368;2023-12-20T07:44:03;8.30;;;3.97;;
61291;SDS011;47165;42.664;23.368;2023-12-20T07:46:29;6.35;;;3.90;;
61291;SDS011;47165;42.664;23.368;2023-12-20T07:48:55;14.52;;;5.70;;
61291;SDS011;47165;42.664;23.368;2023-12-20T07:51:20;14.10;;;5.78;;
61291;SDS011;47165;42.664;23.368;2023-12-20T07:53:46;8.70;;;4.32;;
61291;SDS011;47165;42.664;23.368;2023-12-20T07:56:18;6.07;;;3.50;;
61291;SDS011;47165;42.664;23.368;2023-12-20T07:58:45;7.05;;;3.63;;
61291;SDS011;47165;42.664;23.368;2023-12-20T08:01:11;6.22;;;3.85;;
61291;SDS011;47165;42.664;23.368;2023-12-20T08:03:37;5.63;;;3.63;;
61291;SDS011;47165;42.664;23.368;2023-12-20T08:06:03;7.57;;;4.22;;
61291;SDS011;47165;42.664;23.368;2023-12-20T08:08:29;13.00;;;4.50;;
61291;SDS011;47165;42.664;23.368;2023-12-20T08:10:54;9.70;;;4.40;;
61291;SDS011;47165;42.664;23.368;2023-12-20T08:13:20;11.88;;;4.20;;
61291;SDS011;47165;42.664;23.368;2023-12-20T08:15:50;9.68;;;4.55;;
61291;SDS011;47165;42.664;23.368;2023-12-20T08:18:15;13.23;;;4.60;;
61291;SDS011;47165;42.664;23.368;2023-12-20T08:20:41;13.10;;;6.47;;
61291;SDS011;47165;42.664;23.368;2023-12-20T08:23:06;12.82;;;6.00;;
61291;SDS011;47165;42.664;23.368;2023-12-20T08:25:32;9.10;;;5.78;;
61291;SDS011;47165;42.664;23.368;2023-12-20T08:27:57;8.48;;;5.03;;
61291;SDS011;47165;42.664;23.368;2023-12-20T08:30:23;9.10;;;5.20;;
61291;SDS011;47165;42.664;23.368;2023-12-20T08:32:48;12.38;;;4.97;;
61291;SDS011;47165;42.664;23.368;2023-12-20T08:35:14;14.48;;;6.63;;
61291;SDS011;47165;42.664;23.368;2023-12-20T08:37:39;20.02;;;8.40;;
61291;SDS011;47165;42.664;23.368;2023-12-20T08:40:05;14.25;;;7.32;;
61291;SDS011;47165;42.664;23.368;2023-12-20T08:42:31;11.45;;;5.05;;
61291;SDS011;47165;42.664;23.368;2023-12-20T08:44:57;7.90;;;4.80;;
61291;SDS011;47165;42.664;23.368;2023-12-20T08:47:25;10.88;;;5.75;;
61291;SDS011;47165;42.664;23.368;2023-12-20T08:49:51;13.10;;;7.15;;
61291;SDS011;47165;42.664;23.368;2023-12-20T08:52:21;20.60;;;7.43;;
61291;SDS011;47165;42.664;23.368;2023-12-20T08:54:48;15.10;;;7.07;;
61291;SDS011;47165;42.664;23.368;2023-12-20T08:57:14;14.32;;;8.25;;
61291;SDS011;47165;42.664;23.368;2023-12-20T08:59:39;12.73;;;6.55;;
61291;SDS011;47165;42.664;23.368;2023-12-20T09:02:04;15.45;;;5.20;;
61291;SDS011;47165;42.664;23.368;2023-12-20T09:04:30;9.20;;;4.88;;
61291;SDS011;47165;42.664;23.368;2023-12-20T09:06:55;9.15;;;4.82;;
61291;SDS011;47165;42.664;23.368;2023-12-20T09:09:21;13.75;;;7.10;;
61291;SDS011;47165;42.664;23.368;2023-12-20T09:11:46;8.48;;;3.72;;
61291;SDS011;47165;42.664;23.368;2023-12-20T09:14:13;8.23;;;3.25;;
61291;SDS011;47165;42.664;23.368;2023-12-20T09:16:38;9.48;;;4.20;;
61291;SDS011;47165;42.664;23.368;2023-12-20T09:19:04;11.57;;;5.05;;
61291;SDS011;47165;42.664;23.368;2023-12-20T09:21:30;17.83;;;6.07;;
61291;SDS011;47165;42.664;23.368;2023-12-20T09:23:56;10.88;;;4.45;;
61291;SDS011;47165;42.664;23.368;2023-12-20T09:26:21;21.60;;;9.43;;
61291;SDS011;47165;42.664;23.368;2023-12-20T09:28:46;13.63;;;6.28;;
61291;SDS011;47165;42.664;23.368;2023-12-20T09:31:12;8.20;;;4.13;;
61291;SDS011;47165;42.664;23.368;2023-12-20T09:33:38;17.95;;;8.43;;
61291;SDS011;47165;42.664;23.368;2023-12-20T09:36:03;8.85;;;5.05;;
61291;SDS011;47165;42.664;23.368;2023-12-20T09:38:30;8.75;;;4.38;;
61291;SDS011;47165;42.664;23.368;2023-12-20T09:40:55;14.25;;;5.10;;
61291;SDS011;47165;42.664;23.368;2023-12-20T09:43:21;16.63;;;7.35;;
61291;SDS011;47165;42.664;23.368;2023-12-20T09:45:49;8.77;;;3.95;;
61291;SDS011;47165;42.664;23.368;2023-12-20T09:48:18;11.68;;;5.20;;
61291;SDS011;47165;42.664;23.368;2023-12-20T09:50:45;15.02;;;5.50;;
61291;SDS011;47165;42.664;23.368;2023-12-20T09:53:11;10.18;;;4.72;;
61291;SDS011;47165;42.664;23.368;2023-12-20T09:55:40;8.40;;;4.65;;
61291;SDS011;47165;42.664;23.368;2023-12-20T09:58:07;7.57;;;4.82;;
61291;SDS011;47165;42.664;23.368;2023-12-20T10:00:37;11.50;;;4.45;;
61291;SDS011;47165;42.664;23.368;2023-12-20T10:03:02;12.38;;;5.45;;
61291;SDS011;47165;42.664;23.368;2023-12-20T10:05:31;15.18;;;6.40;;
61291;SDS011;47165;42.664;23.368;2023-12-20T10:07:57;12.07;;;5.13;;
61291;SDS011;47165;42.664;23.368;2023-12-20T10:10:24;17.73;;;6.53;;
61291;SDS011;47165;42.664;23.368;2023-12-20T10:13:11;17.33;;;9.45;;
61291;SDS011;47165;42.664;23.368;2023-12-20T10:15:36;25.15;;;10.35;;
61291;SDS011;47165;42.664;23.368;2023-12-20T10:18:02;21.17;;;8.10;;
61291;SDS011;47165;42.664;23.368;2023-12-20T10:20:29;17.35;;;10.00;;
61291;SDS011;47165;42.664;23.368;2023-12-20T10:22:55;31.02;;;12.30;;
61291;SDS011;47165;42.664;23.368;2023-12-20T10:25:21;11.95;;;7.50;;
61291;SDS011;47165;42.664;23.368;2023-12-20T10:27:47;24.75;;;9.68;;
61291;SDS011;47165;42.664;23.368;2023-12-20T10:30:16;13.13;;;5.25;;
61291;SDS011;47165;42.664;23.368;2023-12-20T10:32:41;15.95;;;7.07;;
61291;SDS011;47165;42.664;23.368;2023-12-20T10:35:07;26.27;;;9.30;;
61291;SDS011;47165;42.664;23.368;2023-12-20T10:37:37;41.10;;;14.57;;
61291;SDS011;47165;42.664;23.368;2023-12-20T10:40:03;24.98;;;8.18;;
61291;SDS011;47165;42.664;23.368;2023-12-20T10:42:31;23.20;;;8.48;;
61291;SDS011;47165;42.664;23.368;2023-12-20T10:44:59;21.67;;;9.38;;
61291;SDS011;47165;42.664;23.368;2023-12-20T10:47:25;26.75;;;11.45;;
61291;SDS011;47165;42.664;23.368;2023-12-20T10:49:52;27.23;;;11.60;;
61291;SDS011;47165;42.664;23.368;2023-12-20T10:52:18;26.38;;;9.68;;
61291;SDS011;47165;42.664;23.368;2023-12-20T10:54:47;21.48;;;8.85;;
61291;SDS011;47165;42.664;23.368;2023-12-20T10:57:13;21.48;;;10.75;;
61291;SDS011;47165;42.664;23.368;2023-12-20T10:59:38;28.73;;;9.40;;
61291;SDS011;47165;42.664;23.368;2023-12-20T11:02:05;30.83;;;11.27;;
61291;SDS011;47165;42.664;23.368;2023-12-20T11:04:53;36.72;;;10.95;;
61291;SDS011;47165;42.664;23.368;2023-12-20T11:07:38;24.67;;;8.80;;
61291;SDS011;47165;42.664;23.368;2023-12-20T11:13:06;24.70;;;8.38;;
61291;SDS011;47165;42.664;23.368;2023-12-20T11:15:45;18.33;;;8.10;;
61291;SDS011;47165;42.664;23.368;2023-12-20T11:18:11;19.98;;;8.18;;
61291;SDS011;47165;42.664;23.368;2023-12-20T11:20:37;25.08;;;8.15;;
61291;SDS011;47165;42.664;23.368;2023-12-20T11:23:03;24.10;;;8.57;;
61291;SDS011;47165;42.664;23.368;2023-12-20T11:25:29;27.63;;;9.48;;
61291;SDS011;47165;42.664;23.368;2023-12-20T11:28:08;21.13;;;8.52;;
61291;SDS011;47165;42.664;23.368;2023-12-20T11:33:12;25.05;;;8.32;;
61291;SDS011;47165;42.664;23.368;2023-12-20T11:35:39;20.95;;;9.65;;
61291;SDS011;47165;42.664;23.368;2023-12-20T11:38:07;28.20;;;9.00;;
61291;SDS011;47165;42.664;23.368;2023-12-20T11:40:36;20.63;;;7.85;;
61291;SDS011;47165;42.664;23.368;2023-12-20T11:43:02;21.70;;;8.63;;
61291;SDS011;47165;42.664;23.368;2023-12-20T11:45:30;31.60;;;10.50;;
61291;SDS011;47165;42.664;23.368;2023-12-20T11:47:57;20.38;;;7.35;;
61291;SDS011;47165;42.664;23.368;2023-12-20T11:50:23;31.23;;;9.95;;
61291;SDS011;47165;42.664;23.368;2023-12-20T11:52:49;17.25;;;6.68;;
61291;SDS011;47165;42.664;23.368;2023-12-20T11:55:16;27.65;;;9.73;;
61291;SDS011;47165;42.664;23.368;2023-12-20T11:57:42;30.33;;;10.90;;
61291;SDS011;47165;42.664;23.368;2023-12-20T12:00:13;24.23;;;9.48;;
61291;SDS011;47165;42.664;23.368;2023-12-20T12:02:39;25.00;;;9.68;;
61291;SDS011;47165;42.664;23.368;2023-12-20T12:05:05;35.80;;;12.07;;
61291;SDS011;47165;42.664;23.368;2023-12-20T12:07:31;36.65;;;11.57;;
61291;SDS011;47165;42.664;23.368;2023-12-20T12:09:59;30.33;;;11.90;;
61291;SDS011;47165;42.664;23.368;2023-12-20T12:12:25;26.35;;;11.45;;
61291;SDS011;47165;42.664;23.368;2023-12-20T12:14:52;26.77;;;9.57;;
61291;SDS011;47165;42.664;23.368;2023-12-20T12:17:18;28.63;;;9.52;;
61291;SDS011;47165;42.664;23.368;2023-12-20T12:19:44;19.38;;;7.68;;
61291;SDS011;47165;42.664;23.368;2023-12-20T12:22:13;27.15;;;10.02;;
61291;SDS011;47165;42.664;23.368;2023-12-20T12:24:41;25.85;;;10.07;;
61291;SDS011;47165;42.664;23.368;2023-12-20T12:27:07;24.88;;;10.43;;
61291;SDS011;47165;42.664;23.368;2023-12-20T12:29:33;23.95;;;8.68;;
61291;SDS011;47165;42.664;23.368;2023-12-20T12:32:05;17.85;;;7.53;;
61291;SDS011;47165;42.664;23.368;2023-12-20T12:34:32;24.83;;;8.90;;
61291;SDS011;47165;42.664;23.368;2023-12-20T12:36:59;26.42;;;8.75;;
61291;SDS011;47165;42.664;23.368;2023-12-20T12:39:25;21.52;;;8.85;;
61291;SDS011;47165;42.664;23.368;2023-12-20T12:41:50;24.75;;;9.43;;
61291;SDS011;47165;42.664;23.368;2023-12-20T12:44:16;24.83;;;9.55;;
61291;SDS011;47165;42.664;23.368;2023-12-20T12:46:43;21.88;;;7.40;;
61291;SDS011;47165;42.664;23.368;2023-12-20T12:49:09;26.08;;;9.85;;
61291;SDS011;47165;42.664;23.368;2023-12-20T12:51:35;25.75;;;9.95;;
61291;SDS011;47165;42.664;23.368;2023-12-20T12:54:00;24.60;;;10.02;;
61291;SDS011;47165;42.664;23.368;2023-12-20T12:56:26;26.70;;;8.32;;
61291;SDS011;47165;42.664;23.368;2023-12-20T12:58:51;27.33;;;10.05;;
61291;SDS011;47165;42.664;23.368;2023-12-20T13:01:17;29.95;;;11.98;;
61291;SDS011;47165;42.664;23.368;2023-12-20T13:03:42;29.42;;;8.82;;
61291;SDS011;47165;42.664;23.368;2023-12-20T13:06:08;19.38;;;7.93;;
61291;SDS011;47165;42.664;23.368;2023-12-20T13:08:34;26.50;;;11.05;;
61291;SDS011;47165;42.664;23.368;2023-12-20T13:10:59;32.33;;;12.02;;
61291;SDS011;47165;42.664;23.368;2023-12-20T13:13:28;25.08;;;8.15;;
61291;SDS011;47165;42.664;23.368;2023-12-20T13:15:54;22.23;;;8.77;;
61291;SDS011;47165;42.664;23.368;2023-12-20T13:18:20;27.13;;;9.60;;
61291;SDS011;47165;42.664;23.368;2023-12-20T13:20:46;32.45;;;9.68;;
61291;SDS011;47165;42.664;23.368;2023-12-20T13:23:13;28.17;;;8.35;;
61291;SDS011;47165;42.664;23.368;2023-12-20T13:25:39;38.08;;;10.38;;
61291;SDS011;47165;42.664;23.368;2023-12-20T13:28:05;22.92;;;8.82;;
61291;SDS011;47165;42.664;23.368;2023-12-20T13:30:30;22.45;;;8.10;;
61291;SDS011;47165;42.664;23.368;2023-12-20T13:32:56;15.77;;;6.85;;
61291;SDS011;47165;42.664;23.368;2023-12-20T13:35:22;21.98;;;8.20;;
61291;SDS011;47165;42.664;23.368;2023-12-20T13:37:47;20.52;;;7.40;;
61291;SDS011;47165;42.664;23.368;2023-12-20T13:40:13;24.95;;;8.10;;
61291;SDS011;47165;42.664;23.368;2023-12-20T13:42:39;20.63;;;8.48;;
61291;SDS011;47165;42.664;23.368;2023-12-20T13:45:05;23.42;;;8.02;;
61291;SDS011;47165;42.664;23.368;2023-12-20T13:47:31;27.13;;;9.30;;
61291;SDS011;47165;42.664;23.368;2023-12-20T13:49:57;22.25;;;8.85;;
61291;SDS011;47165;42.664;23.368;2023-12-20T13:52:23;14.77;;;6.43;;
61291;SDS011;47165;42.664;23.368;2023-12-20T13:54:48;22.98;;;8.43;;
61291;SDS011;47165;42.664;23.368;2023-12-20T13:57:14;13.25;;;6.45;;
61291;SDS011;47165;42.664;23.368;2023-12-20T13:59:40;26.00;;;8.07;;
61291;SDS011;47165;42.664;23.368;2023-12-20T14:02:05;21.48;;;7.30;;
61291;SDS011;47165;42.664;23.368;2023-12-20T14:04:31;13.10;;;6.78;;
61291;SDS011;47165;42.664;23.368;2023-12-20T14:06:56;23.60;;;7.57;;
61291;SDS011;47165;42.664;23.368;2023-12-20T14:09:22;18.85;;;6.65;;
61291;SDS011;47165;42.664;23.368;2023-12-20T14:11:47;18.67;;;7.57;;
61291;SDS011;47165;42.664;23.368;2023-12-20T14:14:13;42.72;;;17.55;;
61291;SDS011;47165;42.664;23.368;2023-12-20T14:16:39;24.02;;;7.25;;
61291;SDS011;47165;42.664;23.368;2023-12-20T14:19:05;17.92;;;7.50;;
61291;SDS011;47165;42.664;23.368;2023-12-20T14:21:33;19.52;;;6.57;;